createdAt,value
2023-01-02T00:00:53.511Z,6.70
2023-01-02T00:03:21.555Z,10.48
2023-01-02T00:05:49.373Z,9.37
2023-01-02T00:08:17.410Z,7.63
2023-01-02T00:10:45.613Z,6.60
2023-01-02T00:13:13.624Z,6.80
2023-01-02T00:15:41.375Z,10.68
2023-01-02T00:18:10.445Z,8.18
2023-01-02T00:20:38.103Z,5.90
2023-01-02T00:23:05.826Z,8.73
2023-01-02T00:25:35.112Z,9.40
2023-01-02T00:28:03.382Z,6.43
2023-01-02T00:30:37.980Z,7.65
2023-01-02T00:33:06.371Z,9.17
2023-01-02T00:35:38.198Z,10.30
2023-01-02T00:38:06.239Z,6.93
2023-01-02T00:40:34.305Z,6.00
2023-01-02T00:43:02.380Z,9.63
2023-01-02T00:45:30.208Z,8.67
2023-01-02T00:47:57.973Z,4.97
2023-01-02T00:50:25.699Z,7.35
2023-01-02T00:52:54.893Z,8.15
2023-01-02T00:55:22.647Z,8.30
2023-01-02T00:57:50.391Z,7.67
2023-01-02T01:00:23.667Z,7.00
2023-01-02T01:02:55.536Z,5.53
2023-01-02T01:05:23.410Z,9.90
2023-01-02T01:07:51.152Z,8.33
2023-01-02T01:10:20.337Z,8.63
2023-01-02T01:12:48.061Z,6.45
2023-01-02T01:15:15.801Z,7.57
2023-01-02T01:17:43.562Z,9.40
2023-01-02T01:20:12.273Z,7.82
2023-01-02T01:22:39.997Z,6.07
2023-01-02T01:25:08.312Z,11.57
2023-01-02T01:27:37.486Z,6.47
2023-01-02T01:30:06.509Z,8.10
2023-01-02T01:32:34.601Z,6.87
2023-01-02T01:35:03.487Z,9.83
2023-01-02T01:37:31.314Z,11.30
2023-01-02T01:39:59.011Z,8.93
2023-01-02T01:42:33.114Z,7.03
2023-01-02T01:45:02.362Z,6.27
2023-01-02T01:47:38.845Z,8.23
2023-01-02T01:50:10.213Z,8.33
2023-01-02T01:52:44.143Z,5.70
2023-01-02T01:55:16.007Z,6.20
2023-01-02T01:57:47.508Z,8.98
2023-01-02T02:00:17.509Z,5.10
2023-01-02T02:02:49.297Z,10.87
2023-01-02T02:05:23.131Z,6.80
2023-01-02T02:08:00.976Z,7.43
2023-01-02T02:10:28.717Z,6.27
2023-01-02T02:12:56.955Z,8.97
2023-01-02T02:15:31.996Z,8.40
2023-01-02T02:18:13.168Z,6.00
2023-01-02T02:20:50.670Z,8.17
2023-01-02T02:23:54.229Z,4.50
2023-01-02T02:26:54.280Z,6.57
2023-01-02T02:30:00.523Z,7.00
2023-01-02T02:32:40.436Z,8.38
2023-01-02T02:35:21.431Z,7.20
2023-01-02T02:37:56.227Z,6.20
2023-01-02T02:40:34.317Z,7.73
2023-01-02T02:43:11.229Z,8.33
2023-01-02T02:45:49.823Z,5.90
2023-01-02T02:48:27.025Z,5.20
2023-01-02T02:50:59.756Z,5.87
2023-01-02T02:53:33.671Z,9.25
2023-01-02T02:56:05.543Z,7.60
2023-01-02T02:58:35.441Z,8.63
2023-01-02T03:01:04.024Z,6.03
2023-01-02T03:03:33.209Z,7.25
2023-01-02T03:06:09.812Z,6.77
2023-01-02T03:08:44.416Z,7.23
2023-01-02T03:11:13.020Z,5.43
2023-01-02T03:13:44.035Z,9.18
2023-01-02T03:16:17.786Z,5.23
2023-01-02T03:18:55.564Z,7.33
2023-01-02T03:21:31.776Z,7.55
2023-01-02T03:24:03.328Z,5.15
2023-01-02T03:26:33.865Z,5.78
2023-01-02T03:29:08.304Z,7.77
2023-01-02T03:31:40.936Z,9.05
2023-01-02T03:34:14.603Z,8.90
2023-01-02T03:36:46.835Z,7.18
2023-01-02T03:39:18.449Z,10.65
2023-01-02T03:41:54.186Z,8.15
2023-01-02T03:44:23.926Z,8.15
2023-01-02T03:46:55.983Z,9.32
2023-01-02T03:49:31.669Z,6.28
2023-01-02T03:51:59.744Z,7.88
2023-01-02T03:54:29.026Z,7.28
2023-01-02T03:57:00.730Z,8.40
2023-01-02T03:59:35.955Z,9.43
2023-01-02T04:02:11.271Z,6.35
2023-01-02T04:04:50.844Z,6.63
2023-01-02T04:07:27.647Z,7.23
2023-01-02T04:09:56.729Z,5.03
2023-01-02T04:12:25.975Z,6.95
2023-01-02T04:14:58.835Z,7.17
2023-01-02T04:17:30.136Z,9.98
2023-01-02T04:20:03.165Z,8.13
2023-01-02T04:22:36.047Z,7.23
2023-01-02T04:25:08.512Z,6.87
2023-01-02T04:27:39.956Z,5.57
2023-01-02T04:30:08.527Z,7.90
2023-01-02T04:32:41.808Z,5.30
2023-01-02T04:35:15.342Z,6.10
2023-01-02T04:37:44.329Z,6.15
2023-01-02T04:40:16.711Z,6.38
2023-01-02T04:42:45.917Z,6.30
2023-01-02T04:45:14.620Z,6.25
2023-01-02T04:47:42.643Z,9.73
2023-01-02T04:50:12.242Z,6.03
2023-01-02T04:52:40.109Z,9.30
2023-01-02T04:55:09.798Z,5.27
2023-01-02T04:57:37.918Z,7.47
2023-01-02T05:00:08.369Z,9.60
2023-01-02T05:02:36.770Z,5.53
2023-01-02T05:05:05.080Z,8.53
2023-01-02T05:07:35.395Z,5.68
2023-01-02T05:10:03.262Z,7.60
2023-01-02T05:12:34.115Z,8.17
2023-01-02T05:15:01.861Z,6.63
2023-01-02T05:17:29.575Z,7.10
2023-01-02T05:19:57.306Z,6.13
2023-01-02T05:22:42.845Z,7.97
2023-01-02T05:25:12.150Z,8.07
2023-01-02T05:27:41.024Z,4.53
2023-01-02T05:30:10.568Z,6.53
2023-01-02T05:32:38.366Z,5.97
2023-01-02T05:35:06.920Z,7.10
2023-01-02T05:37:34.720Z,9.50
2023-01-02T05:40:02.493Z,5.47
2023-01-02T05:42:31.585Z,5.77
2023-01-02T05:44:59.365Z,10.27
2023-01-02T05:47:27.067Z,9.37
2023-01-02T05:49:54.815Z,5.72
2023-01-02T05:52:22.858Z,9.00
2023-01-02T05:54:50.588Z,7.43
2023-01-02T05:57:18.713Z,5.47
2023-01-02T05:59:47.784Z,10.65
2023-01-02T06:02:15.643Z,6.70
2023-01-02T06:04:43.381Z,5.00
2023-01-02T06:07:11.242Z,5.37
2023-01-02T06:09:38.987Z,6.15
2023-01-02T06:12:06.941Z,6.53
2023-01-02T06:14:34.657Z,6.80
2023-01-02T06:17:03.808Z,6.93
2023-01-02T06:19:31.539Z,9.68
2023-01-02T06:21:59.287Z,7.50
2023-01-02T06:24:27.014Z,8.27
2023-01-02T06:26:55.657Z,4.10
2023-01-02T06:29:23.656Z,6.97
2023-01-02T06:31:52.115Z,7.83
2023-01-02T06:34:21.321Z,5.97
2023-01-02T06:36:49.085Z,8.27
2023-01-02T06:39:16.796Z,8.20
2023-01-02T06:41:44.633Z,4.50
2023-01-02T06:44:13.872Z,6.10
2023-01-02T06:46:41.612Z,7.17
2023-01-02T06:49:09.321Z,7.03
2023-01-02T06:51:38.487Z,12.17
2023-01-02T06:54:06.286Z,8.27
2023-01-02T06:56:34.046Z,7.23
2023-01-02T06:59:01.826Z,6.33
2023-01-02T07:01:29.959Z,7.67
2023-01-02T07:03:57.826Z,7.13
2023-01-02T07:06:28.051Z,6.73
2023-01-02T07:08:57.197Z,7.93
2023-01-02T07:11:26.092Z,7.50
2023-01-02T07:13:57.987Z,8.37
2023-01-02T07:16:26.363Z,7.83
2023-01-02T07:18:55.375Z,5.47
2023-01-02T07:21:23.882Z,6.90
2023-01-02T07:23:51.761Z,6.80
2023-01-02T07:26:22.854Z,6.97
2023-01-02T07:28:51.415Z,6.60
2023-01-02T07:31:22.611Z,8.32
2023-01-02T07:33:50.768Z,9.10
2023-01-02T07:36:22.280Z,9.27
2023-01-02T07:38:51.665Z,8.90
2023-01-02T07:41:23.550Z,7.27
2023-01-02T07:43:52.051Z,6.57
2023-01-02T07:46:21.565Z,10.95
2023-01-02T07:48:50.365Z,5.63
2023-01-02T07:51:22.878Z,6.53
2023-01-02T07:53:54.462Z,3.73
2023-01-02T07:56:24.348Z,5.68
2023-01-02T07:58:52.184Z,8.27
2023-01-02T08:01:19.987Z,7.43
2023-01-02T08:03:47.836Z,13.00
2023-01-02T08:06:17.860Z,9.90
2023-01-02T08:08:45.870Z,9.70
2023-01-02T08:11:15.189Z,9.97
2023-01-02T08:13:44.635Z,9.30
2023-01-02T08:16:14.518Z,8.83
2023-01-02T08:18:42.386Z,8.23
2023-01-02T08:21:10.649Z,7.23
2023-01-02T08:23:38.636Z,8.03
2023-01-02T08:26:11.083Z,7.73
2023-01-02T08:28:40.915Z,6.57
2023-01-02T08:31:12.005Z,11.40
2023-01-02T08:33:40.331Z,9.07
2023-01-02T08:36:09.143Z,6.07
2023-01-02T08:38:36.999Z,8.90
2023-01-02T08:41:05.555Z,7.03
2023-01-02T08:43:35.436Z,6.30
2023-01-02T08:46:05.328Z,8.67
2023-01-02T08:48:34.769Z,6.87
2023-01-02T08:51:02.926Z,8.13
2023-01-02T08:53:30.755Z,8.30
2023-01-02T08:56:20.272Z,6.80
2023-01-02T08:58:52.759Z,9.03
2023-01-02T09:01:21.684Z,10.00
2023-01-02T09:03:51.852Z,7.70
2023-01-02T09:06:22.345Z,5.77
2023-01-02T09:08:52.481Z,9.67
2023-01-02T09:11:26.891Z,7.90
2023-01-02T09:13:55.072Z,6.37
2023-01-02T09:16:23.389Z,6.63
2023-01-02T09:18:53.156Z,6.70
2023-01-02T09:21:20.875Z,6.37
2023-01-02T09:23:48.635Z,7.27
2023-01-02T09:26:16.968Z,7.63
2023-01-02T09:28:44.916Z,6.80
2023-01-02T09:31:14.446Z,5.43
2023-01-02T09:33:43.682Z,3.67
2023-01-02T09:36:14.666Z,4.00
2023-01-02T09:38:43.474Z,3.63
2023-01-02T09:41:24.515Z,3.43
2023-01-02T09:43:56.111Z,4.33
2023-01-02T09:46:32.525Z,5.40
2023-01-02T09:49:01.660Z,3.00
2023-01-02T09:51:32.167Z,2.40
2023-01-02T09:54:00.412Z,3.10
2023-01-02T09:56:34.274Z,1.67
2023-01-02T09:59:13.795Z,2.10
2023-01-02T10:01:54.726Z,1.77
2023-01-02T10:04:39.833Z,3.00
2023-01-02T10:07:14.143Z,1.50
2023-01-02T10:09:50.507Z,4.20
2023-01-02T10:12:28.544Z,2.13
2023-01-02T10:15:00.301Z,2.13
2023-01-02T10:17:34.672Z,2.80
2023-01-02T10:20:06.292Z,1.73
2023-01-02T10:22:42.135Z,2.47
2023-01-02T10:25:18.678Z,2.67
2023-01-02T10:27:51.885Z,1.50
2023-01-02T10:30:22.443Z,3.43
2023-01-02T10:32:56.715Z,1.87
2023-01-02T10:35:34.956Z,2.93
2023-01-02T10:38:04.813Z,2.50
2023-01-02T10:40:33.558Z,1.87
2023-01-02T10:43:02.081Z,2.37
2023-01-02T10:45:30.261Z,2.80
2023-01-02T10:47:58.063Z,3.20
2023-01-02T10:50:32.995Z,2.85
2023-01-02T10:53:10.317Z,3.10
2023-01-02T10:55:41.205Z,3.23
2023-01-02T10:58:20.570Z,4.23
2023-01-02T11:00:51.080Z,3.23
2023-01-02T11:03:23.350Z,2.27
2023-01-02T11:05:53.021Z,2.37
2023-01-02T11:08:24.697Z,2.67
2023-01-02T11:10:52.501Z,2.20
2023-01-02T11:13:22.433Z,2.83
2023-01-02T11:15:53.107Z,3.60
2023-01-02T11:18:25.761Z,1.97
2023-01-02T11:20:57.010Z,2.17
2023-01-02T11:23:27.216Z,2.73
2023-01-02T11:25:55.774Z,2.73
2023-01-02T11:28:27.980Z,2.40
2023-01-02T11:31:03.444Z,2.30
2023-01-02T11:33:34.244Z,3.87
2023-01-02T11:36:15.086Z,3.60
2023-01-02T11:38:46.147Z,2.43
2023-01-02T11:41:47.046Z,2.63
2023-01-02T11:44:20.698Z,3.90
2023-01-02T11:46:49.632Z,3.57
2023-01-02T11:49:20.769Z,4.10
2023-01-02T11:51:56.910Z,4.03
2023-01-02T11:54:32.603Z,6.10
2023-01-02T11:57:01.346Z,2.83
2023-01-02T11:59:34.631Z,3.40
2023-01-02T12:02:12.513Z,5.30
2023-01-02T12:04:40.389Z,3.97
2023-01-02T12:07:27.401Z,3.00
2023-01-02T12:10:07.632Z,3.67
2023-01-02T12:12:53.106Z,4.43
2023-01-02T12:15:43.908Z,4.50
2023-01-02T12:18:22.890Z,4.00
2023-01-02T12:20:57.921Z,3.70
2023-01-02T12:23:52.143Z,3.10
2023-01-02T12:26:28.037Z,3.43
2023-01-02T12:29:47.617Z,3.73
2023-01-02T12:32:33.634Z,3.83
2023-01-02T12:35:15.848Z,4.37
2023-01-02T12:37:49.944Z,3.73
2023-01-02T12:40:30.160Z,4.30
2023-01-02T12:43:13.479Z,3.83
2023-01-02T12:45:50.376Z,4.07
2023-01-02T12:48:35.417Z,5.90
2023-01-02T12:51:13.988Z,3.80
2023-01-02T12:54:20.565Z,3.80
2023-01-02T12:57:00.407Z,3.17
2023-01-02T12:59:46.564Z,3.73
2023-01-02T13:02:31.705Z,5.50
2023-01-02T13:05:07.442Z,2.90
2023-01-02T13:07:41.658Z,2.20
2023-01-02T13:10:17.188Z,2.83
2023-01-02T13:12:46.820Z,3.53
2023-01-02T13:15:22.129Z,4.43
2023-01-02T13:18:09.603Z,6.07
2023-01-02T13:20:46.511Z,6.57
2023-01-02T13:23:29.094Z,6.57
2023-01-02T13:26:00.827Z,5.93
2023-01-02T13:28:28.706Z,5.73
2023-01-02T13:31:35.459Z,5.83
2023-01-02T13:33:52.001Z,6.30
2023-01-02T13:36:26.446Z,7.67
2023-01-02T13:38:57.431Z,5.43
2023-01-02T13:41:27.203Z,6.47
2023-01-02T13:43:57.855Z,6.93
2023-01-02T13:47:02.020Z,7.70
2023-01-02T13:49:21.432Z,8.13
2023-01-02T13:51:49.251Z,6.83
2023-01-02T13:54:20.846Z,6.00
2023-01-02T13:57:25.071Z,7.37
2023-01-02T13:59:59.269Z,7.97
2023-01-02T14:02:28.969Z,6.70
2023-01-02T14:04:57.084Z,5.50
2023-01-02T14:07:49.370Z,6.47
2023-01-02T14:10:42.266Z,4.90
2023-01-02T14:13:18.548Z,4.87
2023-01-02T14:16:34.727Z,3.03
2023-01-02T14:19:17.451Z,2.77
2023-01-02T14:21:48.876Z,3.13
2023-01-02T14:24:30.163Z,2.63
2023-01-02T14:27:01.138Z,2.80
2023-01-02T14:29:30.599Z,2.43
2023-01-02T14:32:02.633Z,1.67
2023-01-02T14:34:32.746Z,1.80
2023-01-02T14:37:02.768Z,1.93
2023-01-02T14:39:33.684Z,1.93
2023-01-02T14:42:32.454Z,2.20
2023-01-02T14:45:05.775Z,2.83
2023-01-02T14:47:39.123Z,2.33
2023-01-02T14:50:15.025Z,2.57
2023-01-02T14:52:46.615Z,1.53
2023-01-02T14:55:18.742Z,2.80
2023-01-02T14:57:49.521Z,2.57
2023-01-02T15:00:23.238Z,1.37
2023-01-02T15:02:56.018Z,1.37
2023-01-02T15:05:34.511Z,1.13
2023-01-02T15:08:05.282Z,2.17
2023-01-02T15:10:33.085Z,1.87
2023-01-02T15:13:07.232Z,1.00
2023-01-02T15:15:42.429Z,1.13
2023-01-02T15:18:17.974Z,2.73
2023-01-02T15:20:50.330Z,1.90
2023-01-02T15:23:22.468Z,1.63
2023-01-02T15:25:50.787Z,0.83
2023-01-02T15:28:27.291Z,1.20
2023-01-02T15:31:03.332Z,1.50
2023-01-02T15:33:32.974Z,1.30
2023-01-02T15:36:05.947Z,2.60
2023-01-02T15:38:33.747Z,2.77
2023-01-02T15:41:01.663Z,3.30
2023-01-02T15:43:50.061Z,3.00
2023-01-02T15:46:18.533Z,2.10
2023-01-02T15:48:48.841Z,3.77
2023-01-02T15:51:20.551Z,1.83
2023-01-02T15:54:13.209Z,1.63
2023-01-02T15:56:42.311Z,2.37
2023-01-02T15:59:25.413Z,1.33
2023-01-02T16:01:53.544Z,2.10
2023-01-02T16:04:26.833Z,1.33
2023-01-02T16:06:58.221Z,1.17
2023-01-02T16:09:28.463Z,1.77
2023-01-02T16:11:58.494Z,1.10
2023-01-02T16:14:34.046Z,1.37
2023-01-02T16:17:05.109Z,2.20
2023-01-02T16:19:37.034Z,1.57
2023-01-02T16:22:16.952Z,1.50
2023-01-02T16:24:48.563Z,1.37
2023-01-02T16:27:24.456Z,3.23
2023-01-02T16:29:54.327Z,2.47
2023-01-02T16:32:28.368Z,2.10
2023-01-02T16:35:05.670Z,2.37
2023-01-02T16:37:36.728Z,2.27
2023-01-02T16:41:01.459Z,2.30
2023-01-02T16:43:26.243Z,4.60
2023-01-02T16:45:54.118Z,5.07
2023-01-02T16:48:25.191Z,2.53
2023-01-02T16:50:54.489Z,4.40
2023-01-02T16:53:26.933Z,2.70
2023-01-02T16:55:55.514Z,2.60
2023-01-02T16:58:25.224Z,3.03
2023-01-02T17:00:54.668Z,3.73
2023-01-02T17:03:24.513Z,3.33
2023-01-02T17:06:01.892Z,3.90
2023-01-02T17:08:32.371Z,3.67
2023-01-02T17:11:00.453Z,3.73
2023-01-02T17:13:28.769Z,2.17
2023-01-02T17:15:57.342Z,3.37
2023-01-02T17:18:25.639Z,2.23
2023-01-02T17:20:53.513Z,3.20
2023-01-02T17:23:21.275Z,2.10
2023-01-02T17:25:50.623Z,2.13
2023-01-02T17:28:18.422Z,3.10
2023-01-02T17:30:49.000Z,2.07
2023-01-02T17:33:17.546Z,1.70
2023-01-02T17:35:45.960Z,2.93
2023-01-02T17:38:14.034Z,3.50
2023-01-02T17:40:41.841Z,3.23
2023-01-02T17:43:11.098Z,2.60
2023-01-02T17:45:38.989Z,3.00
2023-01-02T17:48:11.466Z,4.53
2023-01-02T17:50:39.993Z,1.63
2023-01-02T17:53:08.010Z,1.40
2023-01-02T17:55:35.829Z,1.57
2023-01-02T17:58:03.949Z,3.33
2023-01-02T18:00:33.114Z,2.40
2023-01-02T18:03:00.884Z,2.17
2023-01-02T18:05:28.732Z,2.17
2023-01-02T18:07:56.565Z,2.07
2023-01-02T18:10:29.210Z,1.63
2023-01-02T18:13:00.585Z,2.20
2023-01-02T18:15:29.753Z,2.40
2023-01-02T18:18:02.306Z,2.40
2023-01-02T18:20:30.106Z,1.10
2023-01-02T18:22:58.758Z,1.83
2023-01-02T18:25:28.439Z,2.47
2023-01-02T18:28:00.767Z,4.70
2023-01-02T18:30:28.915Z,2.57
2023-01-02T18:33:04.979Z,3.60
2023-01-02T18:38:29.855Z,3.83
2023-01-02T18:40:57.622Z,3.20
2023-01-02T18:43:29.229Z,2.17
2023-01-02T18:45:59.775Z,2.77
2023-01-02T18:48:29.002Z,1.90
2023-01-02T18:51:01.042Z,3.90
2023-01-02T18:53:31.648Z,2.33
2023-01-02T18:56:03.719Z,2.40
2023-01-02T18:58:40.798Z,4.97
2023-01-02T19:01:29.436Z,2.70
2023-01-02T19:04:24.114Z,2.50
2023-01-02T19:06:57.406Z,1.77
2023-01-02T19:09:30.441Z,2.60
2023-01-02T19:12:19.616Z,1.57
2023-01-02T19:14:47.409Z,3.00
2023-01-02T19:17:22.349Z,2.70
2023-01-02T19:19:51.699Z,2.13
2023-01-02T19:22:20.924Z,2.03
2023-01-02T19:24:49.339Z,2.63
2023-01-02T19:27:24.431Z,2.30
2023-01-02T19:29:53.154Z,2.00
2023-01-02T19:32:28.602Z,5.43
2023-01-02T19:35:00.989Z,2.77
2023-01-02T19:37:38.892Z,3.07
2023-01-02T19:40:18.593Z,3.80
2023-01-02T19:42:47.978Z,3.00
2023-01-02T19:45:17.201Z,3.77
2023-01-02T19:47:45.309Z,4.30
2023-01-02T19:50:16.298Z,5.47
2023-01-02T19:52:44.304Z,3.73
2023-01-02T19:55:13.156Z,3.07
2023-01-02T19:57:41.495Z,5.43
2023-01-02T20:00:12.646Z,4.33
2023-01-02T20:02:41.345Z,3.80
2023-01-02T20:05:10.126Z,5.37
2023-01-02T20:07:39.269Z,6.33
2023-01-02T20:10:08.173Z,4.77
2023-01-02T20:12:40.471Z,2.83
2023-01-02T20:15:10.943Z,3.80
2023-01-02T20:17:40.247Z,4.60
2023-01-02T20:20:10.388Z,6.30
2023-01-02T20:22:41.261Z,4.70
2023-01-02T20:25:09.529Z,3.20
2023-01-02T20:27:37.868Z,3.63
2023-01-02T20:30:07.219Z,3.90
2023-01-02T20:32:35.350Z,4.80
2023-01-02T20:35:03.142Z,4.30
2023-01-02T20:37:31.102Z,4.47
2023-01-02T20:40:00.262Z,4.43
2023-01-02T20:42:27.992Z,3.73
2023-01-02T20:44:55.702Z,5.07
2023-01-02T20:47:23.490Z,6.47
2023-01-02T20:49:51.357Z,5.77
2023-01-02T20:52:20.322Z,5.00
2023-01-02T20:57:17.077Z,5.23
2023-01-02T20:59:44.893Z,5.13
2023-01-02T21:02:12.824Z,4.83
2023-01-02T21:04:40.692Z,5.80
2023-01-02T21:07:08.409Z,6.87
2023-01-02T21:09:36.197Z,6.40
2023-01-02T21:12:04.092Z,6.10
2023-01-02T21:14:37.588Z,5.27
2023-01-02T21:17:06.001Z,4.67
2023-01-02T21:19:33.799Z,5.30
2023-01-02T21:22:01.492Z,5.90
2023-01-02T21:24:29.260Z,4.87
2023-01-02T21:26:57.060Z,7.47
2023-01-02T21:29:24.774Z,5.23
2023-01-02T21:31:53.963Z,7.70
2023-01-02T21:34:21.786Z,3.00
2023-01-02T21:36:49.551Z,4.60
2023-01-02T21:39:17.316Z,5.43
2023-01-02T21:42:02.982Z,5.10
2023-01-02T21:44:30.804Z,4.87
2023-01-02T21:47:00.091Z,5.27
2023-01-02T21:49:28.068Z,4.27
2023-01-02T21:51:55.829Z,6.40
2023-01-02T21:54:23.543Z,3.93
2023-01-02T21:56:51.307Z,6.63
2023-01-02T21:59:19.211Z,5.90
2023-01-02T22:01:47.065Z,2.83
2023-01-02T22:04:16.309Z,3.27
2023-01-02T22:07:20.784Z,4.20
2023-01-02T22:09:31.933Z,4.33
2023-01-02T22:12:00.001Z,3.60
2023-01-02T22:14:30.472Z,5.40
2023-01-02T22:17:00.898Z,4.37
2023-01-02T22:19:30.872Z,5.10
2023-01-02T22:21:59.109Z,4.33
2023-01-02T22:24:27.800Z,3.13
2023-01-02T22:26:57.369Z,3.27
2023-01-02T22:29:51.622Z,5.10
2023-01-02T22:32:15.532Z,3.93
2023-01-02T22:34:44.806Z,6.67
2023-01-02T22:37:20.149Z,4.87
2023-01-02T22:39:50.046Z,4.80
2023-01-02T22:42:59.605Z,5.37
2023-01-02T22:45:27.977Z,4.93
2023-01-02T22:47:58.277Z,5.07
2023-01-02T22:50:31.751Z,4.47
2023-01-02T22:53:00.083Z,5.17
2023-01-02T22:55:28.425Z,4.00
2023-01-02T22:57:56.212Z,6.07
2023-01-02T23:00:24.096Z,5.03
2023-01-02T23:02:52.066Z,6.13
2023-01-02T23:05:22.044Z,3.63
2023-01-02T23:07:51.295Z,5.47
2023-01-02T23:10:20.177Z,5.17
2023-01-02T23:12:47.966Z,3.33
2023-01-02T23:15:15.782Z,4.67
2023-01-02T23:18:01.125Z,4.20
2023-01-02T23:20:28.966Z,6.30
2023-01-02T23:22:58.167Z,4.40
2023-01-02T23:25:26.021Z,5.90
2023-01-02T23:27:53.849Z,5.67
2023-01-02T23:30:21.716Z,4.70
2023-01-02T23:32:49.511Z,2.83
2023-01-02T23:35:17.488Z,4.47
2023-01-02T23:37:45.304Z,6.57
2023-01-02T23:40:14.857Z,3.87
2023-01-02T23:42:42.747Z,4.83
2023-01-02T23:45:12.411Z,4.37
2023-01-02T23:47:40.233Z,4.50
2023-01-02T23:50:08.322Z,5.87
2023-01-02T23:52:36.224Z,4.13
2023-01-02T23:55:03.985Z,6.33
2023-01-02T23:57:33.280Z,4.47
